createdAt,value
2022-08-02T00:00:09.272Z,12.4
2022-08-02T00:03:09.286Z,12.3
2022-08-02T00:06:09.223Z,12.2
2022-08-02T00:09:09.153Z,12.3
2022-08-02T00:12:09.822Z,12.3
2022-08-02T00:15:09.142Z,12.2
2022-08-02T00:18:09.187Z,12.2
2022-08-02T00:21:09.169Z,12.1
2022-08-02T00:24:39.186Z,11.9
2022-08-02T00:27:13.727Z,11.8
2022-08-02T00:30:09.228Z,11.8
2022-08-02T00:33:09.164Z,11.8
2022-08-02T00:36:09.212Z,11.7
2022-08-02T00:39:38.052Z,11.6
2022-08-02T00:42:09.385Z,11.6
2022-08-02T00:45:09.260Z,11.6
2022-08-02T00:48:09.184Z,11.5
2022-08-02T00:51:09.210Z,11.4
2022-08-02T00:54:09.202Z,11.3
2022-08-02T00:57:09.223Z,11.3
2022-08-02T01:00:09.229Z,11.3
2022-08-02T01:03:11.039Z,11.3
2022-08-02T01:06:20.656Z,11.3
2022-08-02T01:09:09.859Z,11.2
2022-08-02T01:12:12.682Z,11.1
2022-08-02T01:15:09.244Z,11.1
2022-08-02T01:18:09.178Z,11.1
2022-08-02T01:21:09.235Z,11
2022-08-02T01:24:09.433Z,11
2022-08-02T01:27:09.175Z,10.9
2022-08-02T01:30:09.272Z,10.9
2022-08-02T01:33:09.187Z,10.9
2022-08-02T01:36:09.249Z,10.9
2022-08-02T01:39:09.152Z,10.9
2022-08-02T01:42:09.394Z,11
2022-08-02T01:45:09.255Z,11.2
2022-08-02T01:48:09.227Z,11.2
2022-08-02T01:51:09.159Z,11.2
2022-08-02T01:54:09.659Z,11.1
2022-08-02T01:57:09.170Z,11.1
2022-08-02T02:00:10.454Z,10.9
2022-08-02T02:03:14.427Z,10.9
2022-08-02T02:06:09.217Z,11.2
2022-08-02T02:09:09.226Z,11.1
2022-08-02T02:12:23.827Z,11.1
2022-08-02T02:15:09.220Z,11
2022-08-02T02:18:22.518Z,11
2022-08-02T02:21:09.198Z,10.8
2022-08-02T02:24:17.585Z,10.8
2022-08-02T02:27:09.218Z,10.6
2022-08-02T02:30:09.228Z,10.5
2022-08-02T02:33:09.160Z,10.3
2022-08-02T02:36:09.230Z,10.3
2022-08-02T02:39:16.129Z,10.1
2022-08-02T02:42:09.385Z,10
2022-08-02T02:45:09.208Z,9.9
2022-08-02T02:48:09.161Z,10
2022-08-02T02:51:15.953Z,10
2022-08-02T02:54:43.538Z,10
2022-08-02T02:57:09.184Z,9.9
2022-08-02T03:00:09.184Z,9.9
2022-08-02T03:03:09.173Z,9.8
2022-08-02T03:06:21.542Z,9.7
2022-08-02T03:09:09.170Z,9.8
2022-08-02T03:12:09.491Z,9.7
2022-08-02T03:15:09.189Z,9.6
2022-08-02T03:18:09.201Z,9.6
2022-08-02T03:21:09.125Z,9.6
2022-08-02T03:24:09.184Z,9.5
2022-08-02T03:27:09.165Z,9.8
2022-08-02T03:30:09.168Z,9.9
2022-08-02T03:33:09.122Z,9.8
2022-08-02T03:36:10.710Z,9.9
2022-08-02T03:39:09.228Z,9.9
2022-08-02T03:42:15.591Z,9.9
2022-08-02T03:45:17.448Z,9.9
2022-08-02T03:48:39.451Z,10
2022-08-02T03:51:09.183Z,10.1
2022-08-02T03:54:09.214Z,10.2
2022-08-02T03:57:13.824Z,10.1
2022-08-02T04:00:09.224Z,10.1
2022-08-02T04:03:13.088Z,10.3
2022-08-02T04:06:13.599Z,10.2
2022-08-02T04:09:09.236Z,10.2
2022-08-02T04:12:10.572Z,10.3
2022-08-02T04:15:09.371Z,10.6
2022-08-02T04:18:09.487Z,10.8
2022-08-02T04:21:09.221Z,10.8
2022-08-02T04:24:20.798Z,10.8
2022-08-02T04:30:09.252Z,10.8
2022-08-02T04:33:09.162Z,10.9
2022-08-02T04:36:09.227Z,11.2
2022-08-02T04:39:09.351Z,11.3
2022-08-02T04:42:09.436Z,11.4
2022-08-02T04:45:09.441Z,11.4
2022-08-02T04:48:14.915Z,11.4
2022-08-02T04:51:09.150Z,11.5
2022-08-02T04:54:18.092Z,11.6
2022-08-02T04:57:09.204Z,11.7
2022-08-02T05:00:09.375Z,11.8
2022-08-02T05:03:09.173Z,11.9
2022-08-02T05:06:23.395Z,12
2022-08-02T05:09:09.204Z,12.1
2022-08-02T05:12:10.466Z,12.2
2022-08-02T05:15:14.716Z,12.7
2022-08-02T05:18:09.322Z,13.5
2022-08-02T05:21:09.191Z,14.5
2022-08-02T05:24:09.257Z,15.2
2022-08-02T05:27:28.166Z,15.8
2022-08-02T05:30:09.465Z,16.1
2022-08-02T05:33:09.210Z,16.7
2022-08-02T05:36:09.348Z,17.4
2022-08-02T05:39:25.484Z,17.6
2022-08-02T05:42:09.511Z,17.4
2022-08-02T05:45:09.256Z,17.2
2022-08-02T05:48:12.445Z,17.8
2022-08-02T05:51:09.227Z,18.3
2022-08-02T05:54:09.271Z,18.1
2022-08-02T05:57:09.203Z,17.7
2022-08-02T06:00:12.035Z,17.9
2022-08-02T06:03:09.189Z,17.9
2022-08-02T06:06:09.243Z,18.8
2022-08-02T06:09:09.251Z,19.8
2022-08-02T06:12:12.014Z,20.3
2022-08-02T06:15:09.191Z,20.9
2022-08-02T06:18:09.281Z,20.9
2022-08-02T06:24:09.244Z,21.6
2022-08-02T06:27:09.199Z,21.9
2022-08-02T06:30:09.272Z,21.8
2022-08-02T06:33:09.245Z,21.4
2022-08-02T06:36:09.892Z,21.4
2022-08-02T06:39:09.289Z,21.6
2022-08-02T06:42:09.447Z,22.2
2022-08-02T06:45:09.197Z,22.4
2022-08-02T06:48:09.297Z,22.8
2022-08-02T06:51:09.186Z,22.9
2022-08-02T06:54:09.225Z,24.1
2022-08-02T06:57:09.235Z,24.3
2022-08-02T07:00:09.315Z,25
2022-08-02T07:03:09.250Z,24.9
2022-08-02T07:06:09.273Z,23.7
2022-08-02T07:09:30.372Z,22.4
2022-08-02T07:12:09.408Z,23.1
2022-08-02T07:15:09.334Z,23.6
2022-08-02T07:18:09.254Z,23.7
2022-08-02T07:21:12.950Z,23.4
2022-08-02T07:24:09.211Z,23.6
2022-08-02T07:27:21.677Z,24.3
2022-08-02T07:30:09.329Z,24.6
2022-08-02T07:33:09.265Z,25.3
2022-08-02T07:36:25.116Z,26.1
2022-08-02T07:39:12.395Z,26.6
2022-08-02T07:42:12.330Z,26.4
2022-08-02T07:45:09.251Z,26.2
2022-08-02T07:48:09.227Z,25.9
2022-08-02T07:51:11.186Z,25.9
2022-08-02T07:54:19.026Z,25.6
2022-08-02T07:57:09.221Z,25.4
2022-08-02T08:00:09.216Z,25.9
2022-08-02T08:03:09.291Z,26.3
2022-08-02T08:06:09.231Z,26.8
2022-08-02T08:09:09.263Z,27.1
2022-08-02T08:12:09.606Z,26.5
2022-08-02T08:15:09.250Z,26.3
2022-08-02T08:18:09.254Z,26.4
2022-08-02T08:21:10.765Z,26.8
2022-08-02T08:24:09.306Z,27.2
2022-08-02T08:27:11.436Z,27.3
2022-08-02T08:30:09.279Z,27.8
2022-08-02T08:33:09.254Z,28.5
2022-08-02T08:36:11.438Z,28.3
2022-08-02T08:39:09.237Z,28.9
2022-08-02T08:42:09.644Z,29
2022-08-02T08:45:10.282Z,27.7
2022-08-02T08:48:09.315Z,28.2
2022-08-02T08:51:09.171Z,28.6
2022-08-02T08:54:09.224Z,29.8
2022-08-02T08:57:09.238Z,30.1
2022-08-02T09:00:09.309Z,29.9
2022-08-02T09:03:09.266Z,29.4
2022-08-02T09:06:11.377Z,28.7
2022-08-02T09:09:09.269Z,28.7
2022-08-02T09:12:09.498Z,27.8
2022-08-02T09:15:12.027Z,27.8
2022-08-02T09:18:09.203Z,27.1
2022-08-02T09:21:12.745Z,26.4
2022-08-02T09:24:09.252Z,27.5
2022-08-02T09:27:10.851Z,28.4
2022-08-02T09:30:22.799Z,27.8
2022-08-02T09:33:14.359Z,28.4
2022-08-02T09:36:17.011Z,28.9
2022-08-02T09:39:09.231Z,29.1
2022-08-02T09:42:09.388Z,29.6
2022-08-02T09:45:12.399Z,29.8
2022-08-02T09:48:09.437Z,30.3
2022-08-02T09:51:09.256Z,30.7
2022-08-02T09:54:17.864Z,30.4
2022-08-02T09:57:09.253Z,30.3
2022-08-02T10:00:20.380Z,30.4
2022-08-02T10:03:11.071Z,30.4
2022-08-02T10:06:13.610Z,30.1
2022-08-02T10:09:09.240Z,29.9
2022-08-02T10:12:11.835Z,30.1
2022-08-02T10:15:09.237Z,30.2
2022-08-02T10:18:43.815Z,29.9
2022-08-02T10:21:09.297Z,29.8
2022-08-02T10:24:09.365Z,29.8
2022-08-02T10:27:12.181Z,29.6
2022-08-02T10:30:09.367Z,29.7
2022-08-02T10:33:09.271Z,29.9
2022-08-02T10:36:16.399Z,29.6
2022-08-02T10:39:09.308Z,29.8
2022-08-02T10:42:09.926Z,29.8
2022-08-02T10:45:09.299Z,29.3
2022-08-02T10:48:10.316Z,29.9
2022-08-02T10:51:09.221Z,30.2
2022-08-02T10:54:09.246Z,30
2022-08-02T10:57:15.265Z,30
2022-08-02T11:00:10.771Z,29.9
2022-08-02T11:03:09.214Z,29.9
2022-08-02T11:06:09.220Z,30
2022-08-02T11:09:12.959Z,29.8
2022-08-02T11:12:09.549Z,29.8
2022-08-02T11:15:12.268Z,29.5
2022-08-02T11:18:09.239Z,29.6
2022-08-02T11:21:09.769Z,29.4
2022-08-02T11:24:09.228Z,29.6
2022-08-02T11:27:09.218Z,29.9
2022-08-02T11:30:09.433Z,29.8
2022-08-02T11:33:09.457Z,29.6
2022-08-02T11:36:09.345Z,29.9
2022-08-02T11:39:09.256Z,30.1
2022-08-02T11:42:09.363Z,30.3
2022-08-02T11:45:10.281Z,30.4
2022-08-02T11:51:09.258Z,30.5
2022-08-02T11:54:09.259Z,30.7
2022-08-02T11:57:09.200Z,30.6
2022-08-02T12:00:09.590Z,30.3
2022-08-02T12:03:09.815Z,30.3
2022-08-02T12:06:26.955Z,29.9
2022-08-02T12:09:21.911Z,29.8
2022-08-02T12:12:09.387Z,30.1
2022-08-02T12:15:09.186Z,29.5
2022-08-02T12:18:09.215Z,29.4
2022-08-02T12:21:09.197Z,29.7
2022-08-02T12:24:10.185Z,30.3
2022-08-02T12:27:09.255Z,30.6
2022-08-02T12:30:09.371Z,30.6
2022-08-02T12:33:17.117Z,31.1
2022-08-02T12:36:09.323Z,31.1
2022-08-02T12:39:09.197Z,31.5
2022-08-02T12:42:09.291Z,31.2
2022-08-02T12:45:09.335Z,31.4
2022-08-02T12:48:09.240Z,31.6
2022-08-02T12:51:09.230Z,31.3
2022-08-02T12:54:10.321Z,30.9
2022-08-02T12:57:09.273Z,30.9
2022-08-02T13:00:10.217Z,30.8
2022-08-02T13:06:50.893Z,31.2
2022-08-02T13:09:09.420Z,31.2
2022-08-02T13:12:09.381Z,31.4
2022-08-02T13:15:52.897Z,31.1
2022-08-02T13:18:09.210Z,31.1
2022-08-02T13:21:31.848Z,31.2
2022-08-02T13:24:57.709Z,31.4
2022-08-02T13:27:15.735Z,31.2
2022-08-02T13:30:09.366Z,31.3
2022-08-02T13:33:10.028Z,31.1
2022-08-02T13:36:15.549Z,30.8
2022-08-02T13:39:09.293Z,30.9
2022-08-02T13:42:16.053Z,30.8
2022-08-02T13:45:21.896Z,30.9
2022-08-02T13:48:26.629Z,30.6
2022-08-02T13:51:09.229Z,30.5
2022-08-02T13:54:09.214Z,30.1
2022-08-02T13:57:09.196Z,29.9
2022-08-02T14:00:09.308Z,29.9
2022-08-02T14:03:12.072Z,29.9
2022-08-02T14:06:09.293Z,29.9
2022-08-02T14:09:15.799Z,29.8
2022-08-02T14:12:09.303Z,29.8
2022-08-02T14:15:09.525Z,30.2
2022-08-02T14:18:09.264Z,30.4
2022-08-02T14:21:09.168Z,30.4
2022-08-02T14:24:09.184Z,29.9
2022-08-02T14:27:09.267Z,29.6
2022-08-02T14:30:09.251Z,29.2
2022-08-02T14:33:09.247Z,29.4
2022-08-02T14:36:09.914Z,29.3
2022-08-02T14:39:09.248Z,29
2022-08-02T14:42:09.676Z,28.9
2022-08-02T14:45:09.225Z,28.9
2022-08-02T14:48:10.410Z,29.1
2022-08-02T14:51:09.244Z,28.9
2022-08-02T14:54:16.863Z,28.9
2022-08-02T14:57:09.236Z,29.3
2022-08-02T15:00:09.248Z,29.5
2022-08-02T15:03:13.341Z,29.4
2022-08-02T15:06:09.614Z,29.3
2022-08-02T15:09:09.478Z,28.9
2022-08-02T15:12:20.295Z,28.9
2022-08-02T15:15:09.265Z,28.9
2022-08-02T15:18:09.235Z,28.9
2022-08-02T15:21:59.254Z,29.3
2022-08-02T15:24:09.208Z,29.4
2022-08-02T15:27:09.230Z,29.4
2022-08-02T15:30:10.063Z,29.4
2022-08-02T15:33:09.225Z,29.6
2022-08-02T15:36:09.969Z,29.4
2022-08-02T15:39:09.260Z,29.9
2022-08-02T15:42:09.271Z,30
2022-08-02T15:45:15.689Z,29.7
2022-08-02T15:48:09.871Z,29.7
2022-08-02T15:51:09.200Z,29.9
2022-08-02T15:54:09.250Z,29.8
2022-08-02T15:57:09.248Z,29.8
2022-08-02T16:00:20.223Z,29.7
2022-08-02T16:03:09.204Z,29.8
2022-08-02T16:06:09.256Z,29.6
2022-08-02T16:09:09.261Z,29.3
2022-08-02T16:12:09.245Z,29.2
2022-08-02T16:15:09.316Z,28.6
2022-08-02T16:18:13.047Z,28.4
2022-08-02T16:21:09.190Z,28.3
2022-08-02T16:24:11.979Z,28.2
2022-08-02T16:27:09.165Z,28.6
2022-08-02T16:30:09.253Z,28.7
2022-08-02T16:33:09.188Z,28.5
2022-08-02T16:36:09.249Z,28.7
2022-08-02T16:39:09.159Z,28.7
2022-08-02T16:42:09.713Z,28.3
2022-08-02T16:45:09.172Z,28
2022-08-02T16:48:15.657Z,27.9
2022-08-02T16:51:18.293Z,27.9
2022-08-02T16:54:14.578Z,27.9
2022-08-02T16:57:10.233Z,27.9
2022-08-02T17:00:10.250Z,27.7
2022-08-02T17:03:23.907Z,27.6
2022-08-02T17:06:11.732Z,27.7
2022-08-02T17:09:09.361Z,27.7
2022-08-02T17:12:15.917Z,27.6
2022-08-02T17:18:13.049Z,27.5
2022-08-02T17:21:10.536Z,27.4
2022-08-02T17:24:18.741Z,27.2
2022-08-02T17:27:09.745Z,27
2022-08-02T17:30:17.206Z,26.9
2022-08-02T17:33:11.066Z,26.7
2022-08-02T17:36:11.614Z,26.6
2022-08-02T17:39:16.831Z,26.6
2022-08-02T17:42:11.303Z,26.5
2022-08-02T17:48:19.327Z,26.3
2022-08-02T17:51:12.844Z,26.1
2022-08-02T17:54:11.884Z,26.2
2022-08-02T17:57:13.416Z,26.1
2022-08-02T18:00:14.553Z,25.9
2022-08-02T18:03:14.569Z,25.8
2022-08-02T18:06:13.748Z,25.6
2022-08-02T18:09:12.213Z,25.4
2022-08-02T18:12:09.196Z,25.4
2022-08-02T18:15:24.365Z,25.3
2022-08-02T18:18:09.264Z,25.2
2022-08-02T18:21:33.790Z,25.1
2022-08-02T18:24:09.633Z,24.9
2022-08-02T18:27:10.426Z,24.7
2022-08-02T18:30:28.221Z,24.6
2022-08-02T18:36:09.209Z,24.2
2022-08-02T18:39:18.612Z,23.9
2022-08-02T18:42:12.842Z,23.6
2022-08-02T18:45:21.545Z,23.2
2022-08-02T18:48:21.806Z,22.9
2022-08-02T18:51:10.629Z,22.5
2022-08-02T18:54:09.489Z,22.1
2022-08-02T19:00:15.400Z,21.6
2022-08-02T19:03:18.562Z,21.3
2022-08-02T19:06:11.063Z,21.1
2022-08-02T19:09:22.301Z,20.9
2022-08-02T19:12:09.696Z,20.8
2022-08-02T19:15:10.037Z,20.6
2022-08-02T19:18:11.382Z,20.4
2022-08-02T19:21:16.023Z,20.2
2022-08-02T19:24:15.169Z,19.9
2022-08-02T19:27:37.234Z,19.6
2022-08-02T19:30:17.970Z,19.6
2022-08-02T19:36:19.106Z,19.3
2022-08-02T19:39:10.701Z,19.1
2022-08-02T19:42:10.954Z,19
2022-08-02T19:45:10.457Z,18.8
2022-08-02T19:48:11.006Z,18.7
2022-08-02T19:54:15.243Z,18.4
2022-08-02T19:57:09.175Z,18.4
2022-08-02T20:00:11.013Z,18.3
2022-08-02T20:03:17.967Z,18.3
2022-08-02T20:06:12.264Z,18.3
2022-08-02T20:09:21.757Z,18.2
2022-08-02T20:12:12.001Z,18.2
2022-08-02T20:15:20.107Z,18.2
2022-08-02T20:21:42.710Z,18.2
2022-08-02T20:24:09.393Z,18.1
2022-08-02T20:27:11.455Z,18.1
2022-08-02T20:30:09.454Z,18.2
2022-08-02T20:33:30.925Z,18.2
2022-08-02T20:36:09.130Z,18.3
2022-08-02T20:39:10.416Z,18.3
2022-08-02T20:42:33.671Z,18.3
2022-08-02T20:45:09.424Z,18.3
2022-08-02T20:48:13.971Z,18.3
2022-08-02T20:51:33.596Z,18.2
2022-08-02T20:54:12.082Z,18.1
2022-08-02T20:57:13.979Z,18.1
2022-08-02T21:00:10.011Z,17.9
2022-08-02T21:03:11.689Z,17.9
2022-08-02T21:06:14.800Z,17.9
2022-08-02T21:09:12.495Z,17.9
2022-08-02T21:12:17.234Z,18
2022-08-02T21:15:10.030Z,18.1
2022-08-02T21:18:44.704Z,18.2
2022-08-02T21:24:16.728Z,18.3
2022-08-02T21:27:56.195Z,18.4
2022-08-02T21:30:12.030Z,18.4
2022-08-02T21:33:25.704Z,18.5
2022-08-02T21:36:09.269Z,18.5
2022-08-02T21:39:15.680Z,18.5
2022-08-02T21:42:10.994Z,18.5
2022-08-02T21:45:30.617Z,18.4
2022-08-02T21:48:15.037Z,18.4
2022-08-02T21:51:17.974Z,18.3
2022-08-02T21:54:28.434Z,18.2
2022-08-02T21:57:18.466Z,18.1
2022-08-02T22:00:11.438Z,18
2022-08-02T22:03:37.502Z,17.9
2022-08-02T22:06:12.233Z,17.8
2022-08-02T22:09:46.963Z,17.7
2022-08-02T22:12:20.493Z,17.6
2022-08-02T22:15:16.511Z,17.6
2022-08-02T22:18:16.671Z,17.6
2022-08-02T22:21:22.896Z,17.6
2022-08-02T22:24:29.956Z,17.5
2022-08-02T22:27:15.873Z,17.5
2022-08-02T22:30:14.480Z,17.5
2022-08-02T22:33:21.635Z,17.4
2022-08-02T22:36:13.484Z,17.5
2022-08-02T22:39:23.456Z,17.5
2022-08-02T22:42:19.866Z,17.5
2022-08-02T22:45:09.225Z,17.6
2022-08-02T22:48:09.829Z,17.7
2022-08-02T22:51:09.652Z,17.7
2022-08-02T22:54:16.243Z,17.6
2022-08-02T22:57:15.981Z,17.6
2022-08-02T23:00:09.425Z,17.6
2022-08-02T23:03:12.975Z,17.5
2022-08-02T23:06:09.226Z,17.6
2022-08-02T23:09:09.223Z,17.5
2022-08-02T23:12:10.148Z,17.5
2022-08-02T23:15:09.216Z,17.5
2022-08-02T23:18:09.233Z,17.4
2022-08-02T23:21:09.186Z,17.4
2022-08-02T23:24:09.252Z,17.3
2022-08-02T23:27:09.310Z,17.3
2022-08-02T23:30:09.811Z,17.2
2022-08-02T23:33:10.845Z,17.2
2022-08-02T23:36:09.238Z,17.1
2022-08-02T23:39:12.256Z,17.1
2022-08-02T23:42:09.241Z,17.1
2022-08-02T23:45:09.214Z,17.1
2022-08-02T23:48:09.240Z,17
2022-08-02T23:51:09.207Z,16.9
2022-08-02T23:54:09.229Z,16.9
2022-08-02T23:57:28.331Z,16.9
